createdAt,value
2023-04-13T00:00:11.500Z,0.65
2023-04-13T00:03:03.305Z,0.95
2023-04-13T00:05:53.723Z,0.45
2023-04-13T00:08:45.521Z,0.57
2023-04-13T00:11:35.453Z,0.80
2023-04-13T00:14:29.731Z,0.70
2023-04-13T00:17:18.352Z,0.70
2023-04-13T00:20:13.240Z,0.50
2023-04-13T00:23:01.836Z,0.68
2023-04-13T00:25:51.533Z,1.00
2023-04-13T00:28:41.667Z,0.90
2023-04-13T00:31:30.958Z,0.70
2023-04-13T00:34:19.995Z,0.70
2023-04-13T00:37:08.599Z,0.65
2023-04-13T00:39:58.071Z,0.80
2023-04-13T00:42:47.521Z,0.88
2023-04-13T00:45:39.649Z,0.77
2023-04-13T00:48:28.468Z,0.77
2023-04-13T00:51:18.382Z,0.65
2023-04-13T00:54:08.064Z,0.65
2023-04-13T00:56:59.266Z,0.73
2023-04-13T00:59:49.464Z,0.57
2023-04-13T01:02:42.930Z,0.55
2023-04-13T01:05:41.127Z,0.38
2023-04-13T01:08:37.176Z,0.45
2023-04-13T01:11:31.599Z,0.40
2023-04-13T01:14:30.847Z,0.43
2023-04-13T01:17:23.942Z,0.40
2023-04-13T01:20:17.820Z,0.35
2023-04-13T01:23:10.124Z,0.40
2023-04-13T01:26:04.548Z,0.30
2023-04-13T01:28:55.158Z,0.20
2023-04-13T01:31:45.542Z,0.40
2023-04-13T01:34:34.704Z,0.17
2023-04-13T01:37:26.104Z,0.30
2023-04-13T01:40:18.645Z,0.30
2023-04-13T01:43:12.216Z,0.20
2023-04-13T01:46:14.000Z,0.35
2023-04-13T01:49:18.576Z,0.20
2023-04-13T01:52:30.360Z,0.30
2023-04-13T01:55:20.906Z,0.20
2023-04-13T01:58:15.790Z,0.43
2023-04-13T02:01:11.297Z,0.30
2023-04-13T02:04:00.613Z,0.20
2023-04-13T02:06:53.609Z,0.20
2023-04-13T02:09:50.894Z,0.22
2023-04-13T02:12:39.877Z,0.38
2023-04-13T02:15:28.586Z,0.20
2023-04-13T02:18:20.314Z,0.30
2023-04-13T02:21:10.042Z,0.20
2023-04-13T02:23:59.176Z,0.20
2023-04-13T02:26:47.852Z,0.20
2023-04-13T02:29:38.072Z,0.40
2023-04-13T02:32:26.848Z,0.30
2023-04-13T02:35:20.637Z,0.65
2023-04-13T02:38:10.709Z,0.40
2023-04-13T02:41:01.126Z,0.30
2023-04-13T02:43:52.506Z,0.30
2023-04-13T02:46:44.856Z,0.23
2023-04-13T02:49:37.527Z,0.20
2023-04-13T02:52:41.085Z,0.40
2023-04-13T02:55:29.819Z,0.40
2023-04-13T02:58:32.934Z,0.50
2023-04-13T03:01:25.805Z,0.57
2023-04-13T03:04:17.413Z,0.40
2023-04-13T03:07:09.944Z,0.30
2023-04-13T03:10:06.567Z,0.30
2023-04-13T03:12:56.085Z,0.30
2023-04-13T03:15:46.570Z,0.20
2023-04-13T03:18:38.485Z,0.28
2023-04-13T03:21:29.371Z,0.30
2023-04-13T03:24:27.870Z,0.30
2023-04-13T03:27:21.435Z,0.20
2023-04-13T03:30:12.334Z,0.25
2023-04-13T03:33:11.357Z,0.20
2023-04-13T03:36:01.561Z,0.40
2023-04-13T03:38:54.607Z,0.40
2023-04-13T03:41:44.619Z,0.40
2023-04-13T03:44:34.727Z,0.40
2023-04-13T03:47:26.820Z,0.30
2023-04-13T03:50:16.455Z,0.50
2023-04-13T03:53:05.185Z,0.37
2023-04-13T03:55:54.517Z,0.50
2023-04-13T03:58:44.592Z,0.28
2023-04-13T04:01:36.420Z,0.35
2023-04-13T04:04:27.628Z,0.40
2023-04-13T04:07:16.345Z,0.40
2023-04-13T04:10:07.078Z,0.30
2023-04-13T04:12:56.870Z,0.50
2023-04-13T04:15:46.743Z,1.63
2023-04-13T04:18:38.418Z,0.80
2023-04-13T04:21:34.165Z,0.45
2023-04-13T04:24:27.655Z,0.53
2023-04-13T04:27:20.454Z,0.90
2023-04-13T04:30:11.663Z,0.30
2023-04-13T04:33:02.966Z,0.50
2023-04-13T04:35:58.862Z,0.70
2023-04-13T04:38:58.258Z,0.73
2023-04-13T04:41:49.239Z,0.57
2023-04-13T04:44:39.998Z,0.90
2023-04-13T04:47:32.278Z,0.70
2023-04-13T04:50:33.294Z,0.82
2023-04-13T04:53:32.184Z,0.80
2023-04-13T04:56:22.519Z,0.90
2023-04-13T04:59:14.425Z,0.70
2023-04-13T05:02:16.793Z,0.40
2023-04-13T05:05:07.008Z,0.50
2023-04-13T05:07:55.751Z,0.70
2023-04-13T05:10:47.062Z,2.57
2023-04-13T05:13:35.655Z,2.43
2023-04-13T05:16:34.764Z,2.08
2023-04-13T05:19:35.483Z,4.60
2023-04-13T05:22:47.865Z,0.83
2023-04-13T05:25:36.974Z,1.07
2023-04-13T05:28:34.054Z,0.50
2023-04-13T05:31:24.225Z,0.50
2023-04-13T05:34:13.584Z,0.50
2023-04-13T05:37:10.479Z,0.33
2023-04-13T05:39:59.556Z,0.53
2023-04-13T05:42:57.791Z,0.50
2023-04-13T05:45:52.185Z,0.47
2023-04-13T05:48:43.161Z,0.43
2023-04-13T05:51:34.466Z,0.60
2023-04-13T05:54:23.694Z,0.60
2023-04-13T05:57:12.510Z,0.60
2023-04-13T06:00:10.239Z,0.47
2023-04-13T06:03:04.790Z,0.50
2023-04-13T06:05:54.225Z,0.40
2023-04-13T06:08:44.456Z,0.45
2023-04-13T06:11:33.010Z,0.40
2023-04-13T06:14:22.213Z,0.50
2023-04-13T06:17:10.926Z,0.50
2023-04-13T06:20:01.016Z,0.30
2023-04-13T06:22:50.908Z,0.40
2023-04-13T06:25:42.720Z,0.47
2023-04-13T06:28:33.717Z,0.47
2023-04-13T06:31:23.372Z,0.50
2023-04-13T06:34:14.137Z,0.70
2023-04-13T06:37:05.498Z,0.50
2023-04-13T06:40:12.463Z,0.60
2023-04-13T06:43:18.975Z,0.50
2023-04-13T06:46:31.362Z,0.70
2023-04-13T06:49:28.007Z,0.60
2023-04-13T06:52:20.227Z,0.70
2023-04-13T06:55:10.221Z,1.00
2023-04-13T06:58:01.868Z,0.70
2023-04-13T07:00:50.647Z,0.70
2023-04-13T07:03:40.551Z,0.70
2023-04-13T07:06:29.749Z,0.73
2023-04-13T07:09:20.959Z,0.80
2023-04-13T07:12:09.899Z,0.63
2023-04-13T07:14:59.045Z,0.60
2023-04-13T07:17:47.748Z,0.80
2023-04-13T07:20:38.715Z,0.63
2023-04-13T07:23:28.037Z,0.60
2023-04-13T07:26:18.529Z,0.80
2023-04-13T07:29:13.197Z,0.82
2023-04-13T07:32:06.502Z,1.00
2023-04-13T07:35:00.007Z,0.80
2023-04-13T07:37:51.382Z,0.90
2023-04-13T07:40:42.857Z,0.80
2023-04-13T07:43:35.350Z,0.70
2023-04-13T07:46:28.676Z,0.80
2023-04-13T07:49:17.763Z,0.80
2023-04-13T07:52:07.321Z,1.00
2023-04-13T07:54:58.725Z,0.82
2023-04-13T07:57:48.837Z,0.82
2023-04-13T08:00:39.728Z,0.68
2023-04-13T08:03:32.005Z,0.50
2023-04-13T08:06:22.538Z,0.70
2023-04-13T08:09:12.884Z,0.77
2023-04-13T08:12:03.229Z,0.75
2023-04-13T08:14:52.191Z,1.00
2023-04-13T08:17:44.411Z,0.95
2023-04-13T08:20:35.532Z,0.77
2023-04-13T08:23:25.869Z,1.10
2023-04-13T08:26:18.608Z,1.67
2023-04-13T08:29:08.976Z,2.42
2023-04-13T08:31:58.246Z,3.10
2023-04-13T08:34:50.014Z,4.10
2023-04-13T08:37:39.885Z,1.45
2023-04-13T08:40:30.854Z,0.93
2023-04-13T08:43:21.458Z,0.80
2023-04-13T08:46:10.468Z,0.70
2023-04-13T08:49:00.497Z,1.40
2023-04-13T08:52:04.817Z,0.60
2023-04-13T08:54:55.825Z,0.80
2023-04-13T08:57:51.209Z,0.93
2023-04-13T09:00:41.677Z,0.70
2023-04-13T09:03:38.322Z,0.90
2023-04-13T09:06:33.211Z,1.00
2023-04-13T09:09:27.557Z,0.77
2023-04-13T09:12:16.714Z,0.70
2023-04-13T09:15:07.191Z,0.75
2023-04-13T09:18:10.419Z,0.73
2023-04-13T09:21:04.310Z,0.70
2023-04-13T09:23:56.642Z,0.70
2023-04-13T09:26:48.498Z,0.68
2023-04-13T09:29:37.216Z,0.85
2023-04-13T09:32:27.714Z,0.70
2023-04-13T09:35:19.272Z,0.90
2023-04-13T09:38:08.904Z,0.80
2023-04-13T09:40:59.158Z,0.90
2023-04-13T09:43:49.084Z,0.90
2023-04-13T09:46:38.414Z,0.80
2023-04-13T09:49:27.556Z,0.60
2023-04-13T09:52:23.873Z,0.70
2023-04-13T09:55:17.736Z,0.70
2023-04-13T09:58:13.937Z,1.90
2023-04-13T10:01:04.106Z,1.92
2023-04-13T10:03:53.315Z,1.10
2023-04-13T10:06:44.894Z,0.73
2023-04-13T10:09:33.517Z,1.02
2023-04-13T10:12:23.293Z,0.80
2023-04-13T10:15:23.357Z,1.00
2023-04-13T10:18:28.185Z,1.00
2023-04-13T10:21:17.453Z,0.90
2023-04-13T10:24:12.088Z,1.10
2023-04-13T10:27:12.574Z,1.13
2023-04-13T10:30:04.083Z,1.10
2023-04-13T10:33:05.100Z,0.88
2023-04-13T10:35:59.345Z,0.80
2023-04-13T10:38:48.583Z,1.17
2023-04-13T10:41:37.942Z,0.93
2023-04-13T10:44:27.193Z,1.08
2023-04-13T10:47:18.681Z,1.17
2023-04-13T10:50:17.632Z,0.90
2023-04-13T10:53:09.272Z,0.90
2023-04-13T10:55:58.708Z,1.00
2023-04-13T10:58:54.105Z,1.20
2023-04-13T11:01:44.001Z,1.77
2023-04-13T11:04:32.795Z,0.80
2023-04-13T11:07:24.105Z,0.90
2023-04-13T11:10:14.256Z,1.05
2023-04-13T11:13:03.057Z,0.93
2023-04-13T11:15:54.124Z,1.05
2023-04-13T11:18:42.817Z,1.13
2023-04-13T11:21:32.559Z,1.10
2023-04-13T11:24:25.830Z,1.25
2023-04-13T11:27:20.678Z,1.90
2023-04-13T11:30:11.104Z,1.10
2023-04-13T11:33:01.751Z,1.20
2023-04-13T11:35:51.624Z,1.00
2023-04-13T11:38:42.174Z,0.90
2023-04-13T11:41:33.172Z,1.08
2023-04-13T11:44:23.871Z,0.70
2023-04-13T11:47:16.144Z,0.80
2023-04-13T11:50:06.624Z,0.90
2023-04-13T11:52:57.640Z,0.80
2023-04-13T11:55:53.201Z,0.82
2023-04-13T11:58:43.804Z,0.93
2023-04-13T12:01:36.707Z,0.90
2023-04-13T12:04:29.231Z,0.70
2023-04-13T12:07:18.826Z,0.90
2023-04-13T12:10:11.036Z,0.68
2023-04-13T12:13:17.174Z,0.70
2023-04-13T12:16:14.661Z,0.98
2023-04-13T12:19:10.190Z,1.20
2023-04-13T12:22:00.600Z,1.10
2023-04-13T12:24:50.978Z,0.90
2023-04-13T12:27:41.351Z,1.02
2023-04-13T12:30:29.958Z,1.10
2023-04-13T12:33:20.150Z,1.27
2023-04-13T12:36:11.690Z,1.00
2023-04-13T12:39:01.022Z,0.70
2023-04-13T12:41:49.841Z,0.95
2023-04-13T12:44:40.398Z,1.10
2023-04-13T12:47:29.025Z,1.23
2023-04-13T12:50:19.353Z,1.13
2023-04-13T12:53:09.847Z,0.93
2023-04-13T12:55:58.468Z,1.10
2023-04-13T12:58:48.957Z,1.20
2023-04-13T13:01:38.206Z,1.00
2023-04-13T13:04:30.166Z,1.00
2023-04-13T13:07:19.631Z,1.48
2023-04-13T13:10:25.775Z,0.95
2023-04-13T13:13:19.227Z,1.60
2023-04-13T13:16:09.134Z,1.42
2023-04-13T13:18:57.724Z,1.20
2023-04-13T13:21:46.405Z,1.35
2023-04-13T13:24:35.771Z,1.75
2023-04-13T13:30:18.213Z,1.08
2023-04-13T13:33:07.214Z,0.95
2023-04-13T13:35:56.235Z,1.15
2023-04-13T13:38:44.891Z,0.70
2023-04-13T13:41:34.502Z,0.75
2023-04-13T13:44:25.023Z,1.00
2023-04-13T13:47:15.636Z,0.90
2023-04-13T13:50:11.136Z,0.70
2023-04-13T13:53:04.957Z,1.00
2023-04-13T13:56:01.870Z,1.13
2023-04-13T13:58:51.462Z,1.08
2023-04-13T14:01:42.002Z,1.10
2023-04-13T14:04:31.714Z,1.30
2023-04-13T14:07:20.507Z,1.40
2023-04-13T14:10:11.719Z,2.00
2023-04-13T14:13:00.466Z,1.40
2023-04-13T14:15:49.297Z,1.25
2023-04-13T14:18:39.418Z,1.33
2023-04-13T14:21:28.392Z,1.10
2023-04-13T14:24:17.622Z,2.65
2023-04-13T14:27:07.266Z,1.52
2023-04-13T14:29:55.934Z,1.48
2023-04-13T14:32:47.247Z,1.42
2023-04-13T14:35:38.747Z,1.20
2023-04-13T14:38:27.864Z,0.93
2023-04-13T14:41:17.182Z,0.70
2023-04-13T14:44:06.021Z,0.88
2023-04-13T14:46:55.342Z,1.10
2023-04-13T14:49:44.412Z,1.23
2023-04-13T14:52:35.056Z,0.93
2023-04-13T14:55:24.612Z,1.10
2023-04-13T14:58:13.490Z,0.95
2023-04-13T15:01:02.352Z,0.95
2023-04-13T15:03:53.337Z,1.00
2023-04-13T15:06:42.252Z,2.67
2023-04-13T15:09:33.161Z,1.40
2023-04-13T15:12:22.754Z,1.00
2023-04-13T15:15:13.238Z,1.73
2023-04-13T15:18:03.731Z,1.42
2023-04-13T15:20:52.868Z,1.20
2023-04-13T15:23:42.072Z,1.50
2023-04-13T15:26:38.666Z,2.08
2023-04-13T15:29:27.458Z,1.80
2023-04-13T15:32:16.903Z,1.95
2023-04-13T15:35:06.487Z,2.38
2023-04-13T15:37:55.818Z,1.42
2023-04-13T15:40:44.534Z,1.60
2023-04-13T15:43:35.560Z,2.60
2023-04-13T15:46:24.794Z,1.58
2023-04-13T15:49:13.537Z,1.50
2023-04-13T15:52:02.311Z,1.08
2023-04-13T15:54:51.059Z,1.50
2023-04-13T15:57:40.193Z,1.50
2023-04-13T16:00:31.682Z,2.00
2023-04-13T16:03:22.547Z,1.70
2023-04-13T16:06:11.716Z,2.55
2023-04-13T16:09:01.217Z,5.45
2023-04-13T16:11:50.940Z,1.38
2023-04-13T16:14:41.981Z,1.60
2023-04-13T16:17:32.449Z,1.95
2023-04-13T16:20:23.311Z,1.10
2023-04-13T16:23:14.334Z,1.30
2023-04-13T16:26:03.878Z,1.40
2023-04-13T16:28:53.544Z,1.60
2023-04-13T16:31:44.841Z,1.52
2023-04-13T16:34:35.108Z,6.32
2023-04-13T16:37:24.657Z,3.33
2023-04-13T16:40:15.413Z,1.90
2023-04-13T16:43:05.874Z,1.80
2023-04-13T16:45:54.585Z,2.50
2023-04-13T16:48:44.257Z,1.85
2023-04-13T16:51:34.344Z,2.22
2023-04-13T16:54:23.884Z,1.20
2023-04-13T16:57:12.989Z,1.40
2023-04-13T17:00:07.180Z,1.67
2023-04-13T17:02:56.185Z,2.00
2023-04-13T17:05:45.435Z,1.70
2023-04-13T17:08:35.655Z,1.98
2023-04-13T17:11:24.536Z,5.00
2023-04-13T17:14:13.239Z,5.75
2023-04-13T17:17:02.736Z,3.55
2023-04-13T17:19:53.253Z,3.80
2023-04-13T17:22:42.889Z,3.35
2023-04-13T17:25:34.834Z,2.70
2023-04-13T17:28:24.782Z,3.13
2023-04-13T17:31:13.935Z,2.97
2023-04-13T17:34:02.663Z,2.67
2023-04-13T17:36:51.745Z,3.33
2023-04-13T17:39:42.699Z,3.88
2023-04-13T17:42:32.892Z,4.70
2023-04-13T17:45:22.111Z,3.53
2023-04-13T17:48:13.865Z,2.45
2023-04-13T17:51:03.491Z,2.70
2023-04-13T17:53:53.732Z,3.10
2023-04-13T17:56:43.860Z,2.50
2023-04-13T17:59:34.056Z,2.47
2023-04-13T18:02:23.830Z,1.70
2023-04-13T18:05:15.500Z,1.70
2023-04-13T18:08:05.251Z,2.10
2023-04-13T18:10:56.586Z,2.03
2023-04-13T18:13:45.833Z,1.67
2023-04-13T18:16:36.722Z,1.70
2023-04-13T18:19:28.981Z,1.13
2023-04-13T18:22:17.835Z,1.73
2023-04-13T18:25:07.777Z,1.77
2023-04-13T18:27:56.713Z,2.40
2023-04-13T18:30:46.373Z,2.03
2023-04-13T18:33:37.766Z,2.95
2023-04-13T18:36:36.932Z,2.97
2023-04-13T18:39:28.695Z,3.55
2023-04-13T18:42:18.509Z,2.45
2023-04-13T18:45:08.550Z,3.15
2023-04-13T18:47:58.576Z,2.33
2023-04-13T18:55:29.378Z,2.65
2023-04-13T18:58:19.587Z,2.38
2023-04-13T19:01:15.930Z,2.30
2023-04-13T19:04:05.663Z,2.90
2023-04-13T19:06:54.526Z,1.98
2023-04-13T19:09:43.498Z,2.53
2023-04-13T19:12:33.552Z,3.05
2023-04-13T19:15:23.999Z,2.28
2023-04-13T19:18:12.609Z,1.92
2023-04-13T19:21:01.441Z,1.58
2023-04-13T19:23:50.434Z,1.98
2023-04-13T19:26:40.138Z,2.60
2023-04-13T19:29:31.651Z,2.00
2023-04-13T19:32:20.341Z,1.92
2023-04-13T19:35:10.493Z,1.70
2023-04-13T19:38:00.557Z,3.90
2023-04-13T19:40:49.063Z,4.70
2023-04-13T19:43:38.522Z,2.80
2023-04-13T19:46:28.992Z,2.00
2023-04-13T19:49:18.461Z,1.80
2023-04-13T19:52:06.994Z,2.45
2023-04-13T19:54:56.233Z,2.45
2023-04-13T19:57:44.767Z,2.45
2023-04-13T20:00:34.491Z,2.13
2023-04-13T20:03:26.101Z,2.67
2023-04-13T20:06:16.922Z,3.90
2023-04-13T20:09:10.280Z,3.17
2023-04-13T20:12:00.449Z,3.20
2023-04-13T20:14:49.413Z,3.60
2023-04-13T20:17:38.783Z,3.10
2023-04-13T20:20:29.494Z,3.00
2023-04-13T20:23:18.104Z,3.05
2023-04-13T20:26:06.664Z,1.55
2023-04-13T20:28:55.334Z,1.80
2023-04-13T20:31:44.344Z,1.70
2023-04-13T20:34:34.889Z,2.08
2023-04-13T20:37:25.394Z,1.75
2023-04-13T20:40:14.117Z,1.48
2023-04-13T20:46:11.439Z,1.90
2023-04-13T20:49:02.764Z,2.90
2023-04-13T20:51:53.655Z,2.50
2023-04-13T20:54:43.949Z,2.28
2023-04-13T20:57:33.173Z,2.05
2023-04-13T21:00:25.307Z,1.77
2023-04-13T21:03:15.526Z,2.15
2023-04-13T21:06:04.216Z,2.13
2023-04-13T21:08:54.771Z,2.03
2023-04-13T21:11:47.741Z,1.90
2023-04-13T21:14:36.247Z,2.83
2023-04-13T21:17:25.815Z,2.63
2023-04-13T21:20:14.363Z,2.08
2023-04-13T21:23:03.350Z,1.85
2023-04-13T21:25:51.887Z,1.70
2023-04-13T21:28:42.730Z,1.67
2023-04-13T21:31:31.341Z,1.70
2023-04-13T21:34:22.784Z,1.77
2023-04-13T21:37:11.757Z,2.22
2023-04-13T21:40:00.523Z,2.13
2023-04-13T21:42:49.518Z,2.63
2023-04-13T21:45:39.901Z,2.28
2023-04-13T21:48:28.529Z,2.55
2023-04-13T21:51:17.104Z,2.25
2023-04-13T21:54:07.136Z,2.40
2023-04-13T21:56:56.084Z,1.95
2023-04-13T21:59:44.703Z,2.15
2023-04-13T22:02:34.868Z,2.00
2023-04-13T22:05:23.688Z,2.03
2023-04-13T22:08:13.520Z,2.40
2023-04-13T22:11:02.676Z,1.67
2023-04-13T22:13:52.717Z,1.50
2023-04-13T22:16:41.400Z,2.10
2023-04-13T22:19:31.988Z,2.20
2023-04-13T22:22:21.092Z,1.98
2023-04-13T22:25:10.122Z,2.00
2023-04-13T22:27:59.187Z,1.88
2023-04-13T22:30:47.878Z,2.20
2023-04-13T22:33:38.468Z,2.03
2023-04-13T22:36:28.458Z,1.90
2023-04-13T22:39:17.987Z,2.33
2023-04-13T22:42:06.812Z,1.73
2023-04-13T22:44:55.914Z,1.48
2023-04-13T22:47:44.556Z,2.03
2023-04-13T22:50:34.069Z,1.67
2023-04-13T22:53:24.037Z,2.03
2023-04-13T22:56:12.963Z,1.45
2023-04-13T22:59:01.909Z,1.80
2023-04-13T23:01:51.866Z,1.88
2023-04-13T23:04:40.968Z,1.70
2023-04-13T23:07:30.617Z,1.48
2023-04-13T23:10:21.093Z,2.28
2023-04-13T23:13:09.706Z,1.92
2023-04-13T23:16:00.978Z,1.70
2023-04-13T23:18:49.658Z,1.73
2023-04-13T23:21:39.166Z,1.67
2023-04-13T23:24:29.573Z,1.98
2023-04-13T23:27:20.882Z,1.60
2023-04-13T23:30:10.973Z,1.30
2023-04-13T23:33:00.498Z,1.75
2023-04-13T23:35:52.697Z,1.48
2023-04-13T23:38:41.680Z,1.67
2023-04-13T23:41:30.747Z,1.40
2023-04-13T23:44:21.910Z,1.70
2023-04-13T23:47:11.102Z,1.92
2023-04-13T23:50:00.627Z,1.60
2023-04-13T23:52:49.242Z,1.58
2023-04-13T23:55:39.322Z,1.60
2023-04-13T23:58:28.381Z,1.60
